North Platte Regional Airport Lee Bird Field
KLBF : now visible

Aeroporto :











RITROVATECI SU...

 
LOGIN :

Iscrizione | Disclaimer

   EN    FR    IT 

 









Sommario :    VFR   VFR Marginale   IFR   IFR Intensivo   IFR Molto Intensivo
Visibilità : 
Base nubi : 
>= 8 km
>= 3000ft
5 / 8 km
1000 / 3000 ft
1500m / 5 km
500 / 1000 ft
800 / 1500m
200 / 500 ft
< 800m
< 200 ft
Simboli :   Temporali  Nebbia  Neve Forte  Precipitazioni Forti  Vento > 20 kt






- Altitudine del aeroporto : 2777 ft
- Codice IATA : LBF


KLBF - North Platte Regional Lee Bird Field

ULTIMO METAR :
  • 061653Z AUTO 23005KT 10SM SCT012 SCT075 01/M02 A3034 RMK AO2 SLP296 T00111022

METARs OBSOLETI :
  • 061553Z AUTO 00000KT 10SM FEW013 M02/M04 A3035 RMK AO2 SLP302 T10221039
  • 061453Z AUTO 00000KT 8SM FEW010 M05/M06 A3034 RMK AO2 SLP299 I3000 T10501061 50005

TAF KLBF
Valido dal 06 a 18 ore il 07 a 18 ore UTC


061720Z 0618/0718 19006KT P6SM SCT015
FM062000 20009KT P6SM FEW250
FM070000 19005KT P6SM FEW250
FM070500 VRB03KT P6SM FEW250



MetMap, La meteo Aeronautica in un colpo d'occhio ! - Copyright ORBIFLY Dicembre 2007 - Disclaimer

ORBIFLY MET'MAP TEAM :

Programmazione e sviluppo : Alexandra Zaïnal
Concezione : Baudouin d'Aumeries
Aiuto per la programmazione : Marc-Olivier Méhu
Supporto tecnico e logistico : Manuel Goepfert
Aiuto per la traduzione : Arnaldo La Scala

Contatto : metmap@orbifly.com




FONTI E CREDITI :

   NOAA       Earth
Advisory